Time,TemperatureF,DewpointF,PressureIn,WindDirection,WindDirectionDegrees,WindSpeedMPH,WindSpeedGustMPH,Humidity,HourlyPrecipIn,Conditions,Clouds,dailyrainin,SoftwareType,DateUTC
2014-03-01 00:01:00,59.0,51.4,30.10,NE,45,0.0,-999.0,76,-99.99,,,0.00,meteohub,2014-03-01 05:01:00,
2014-03-01 00:02:00,59.0,52.5,30.10,NE,45,0.0,-999.0,79,-99.99,,,0.00,meteohub,2014-03-01 05:02:00,
2014-03-01 00:05:00,59.0,51.4,30.10,NW,315,2.0,-999.0,76,-99.99,,,0.00,meteohub,2014-03-01 05:05:00,
2014-03-01 00:10:00,59.0,51.4,30.10,NW,315,5.0,-999.0,76,-99.99,,,-99.99,meteohub,2014-03-01 05:10:00,
2014-03-01 00:15:00,59.0,51.4,30.10,NW,315,1.0,-999.0,76,-99.99,,,-99.99,meteohub,2014-03-01 05:15:00,
2014-03-01 00:20:00,59.0,50.7,30.10,NNW,337,5.0,-999.0,74,-99.99,,,0.00,meteohub,2014-03-01 05:20:00,
2014-03-01 00:26:00,59.0,50.4,30.10,NW,315,1.0,8.0,73,0.00,,,0.00,meteohub,2014-03-01 05:26:00,
2014-03-01 00:31:00,59.0,50.4,30.10,NW,315,2.0,8.0,73,0.00,,,0.00,meteohub,2014-03-01 05:31:00,
2014-03-01 00:36:00,59.0,50.4,30.10,NW,315,1.0,8.0,73,0.00,,,0.00,meteohub,2014-03-01 05:36:00,
2014-03-01 00:41:00,59.0,50.7,30.10,NW,315,1.0,5.0,74,0.00,,,0.00,meteohub,2014-03-01 05:41:00,
2014-03-01 00:46:00,59.0,51.4,30.10,NW,315,1.0,6.0,76,0.00,,,0.00,meteohub,2014-03-01 05:46:00,
2014-03-01 00:52:00,57.9,50.0,30.10,NNW,337,1.0,6.0,75,0.00,,,0.00,meteohub,2014-03-01 05:52:00,
2014-03-01 00:57:00,59.0,50.7,30.10,NW,315,2.0,6.0,74,0.00,,,0.00,meteohub,2014-03-01 05:57:00,
2014-03-01 01:02:00,59.0,50.4,30.10,NNW,337,0.0,8.0,73,0.00,,,0.00,meteohub,2014-03-01 06:02:00,
2014-03-01 01:07:00,59.0,50.4,30.10,NW,315,7.0,-999.0,73,0.00,,,0.00,meteohub,2014-03-01 06:07:00,
2014-03-01 01:12:00,59.0,51.1,30.10,NNE,22,2.0,10.0,75,0.00,,,0.00,meteohub,2014-03-01 06:12:00,
2014-03-01 01:17:00,57.9,49.3,30.10,NW,315,1.0,10.0,73,-99.99,,,0.00,meteohub,2014-03-01 06:17:00,
2014-03-01 01:22:00,57.9,49.3,30.10,NW,315,3.0,8.0,73,0.00,,,0.00,meteohub,2014-03-01 06:22:00,
2014-03-01 01:27:00,57.9,49.3,30.10,NE,45,0.0,8.0,73,0.00,,,0.00,meteohub,2014-03-01 06:27:00,
2014-03-01 01:32:00,57.9,49.6,30.10,NW,315,0.0,-999.0,74,0.00,,,0.00,meteohub,2014-03-01 06:32:00,
2014-03-01 01:37:00,57.9,50.4,30.10,NNW,337,0.0,-999.0,76,0.00,,,0.00,meteohub,2014-03-01 06:37:00,
2014-03-01 01:43:00,57.9,50.4,30.10,West,270,1.0,-999.0,76,0.00,,,0.00,meteohub,2014-03-01 06:43:00,
2014-03-01 01:48:00,57.0,49.5,30.10,NE,45,0.0,-999.0,76,0.00,,,0.00,meteohub,2014-03-01 06:48:00,
2014-03-01 01:53:00,57.0,50.2,30.10,WNW,292,5.0,-999.0,78,0.00,,,0.00,meteohub,2014-03-01 06:53:00,
2014-03-01 01:58:00,57.0,50.2,30.09,SW,225,0.0,-999.0,78,0.00,,,0.00,meteohub,2014-03-01 06:58:00,
2014-03-01 02:03:00,57.0,50.2,30.07,NE,45,4.0,-999.0,78,-99.99,,,0.00,meteohub,2014-03-01 07:03:00,
2014-03-01 02:08:00,57.0,50.9,30.07,NE,45,1.0,-999.0,80,0.00,,,0.00,meteohub,2014-03-01 07:08:00,
2014-03-01 02:13:00,55.9,49.5,30.07,NE,45,1.0,-999.0,79,-99.99,,,0.00,meteohub,2014-03-01 07:13:00,
2014-03-01 02:19:00,55.9,49.5,30.07,South,180,1.0,-999.0,79,0.00,,,0.00,meteohub,2014-03-01 07:19:00,
2014-03-01 02:24:00,55.9,49.5,30.07,NW,315,0.0,-999.0,79,-99.99,,,0.00,meteohub,2014-03-01 07:24:00,
2014-03-01 02:29:00,55.9,50.2,30.07,NNE,22,0.0,-999.0,81,-99.99,,,0.00,meteohub,2014-03-01 07:29:00,
2014-03-01 02:34:00,55.0,48.9,30.07,NNE,22,0.0,-999.0,80,-99.99,,,0.00,meteohub,2014-03-01 07:34:00,
2014-03-01 02:39:00,55.0,49.3,30.07,NE,45,1.0,-999.0,81,-99.99,,,0.00,meteohub,2014-03-01 07:39:00,
2014-03-01 02:44:00,55.0,49.3,30.07,NNE,22,2.0,-999.0,81,-99.99,,,0.00,meteohub,2014-03-01 07:44:00,
2014-03-01 02:49:00,55.0,49.3,30.07,NE,45,1.0,-999.0,81,-99.99,,,0.00,meteohub,2014-03-01 07:49:00,
2014-03-01 02:55:00,55.0,49.3,30.07,NNW,337,2.0,-999.0,81,-99.99,,,0.00,meteohub,2014-03-01 07:55:00,
2014-03-01 03:00:00,55.0,49.6,30.07,North,0,0.0,-999.0,82,-99.99,,,0.00,meteohub,2014-03-01 08:00:00,
2014-03-01 03:05:00,55.0,49.6,30.07,WSW,247,0.0,-999.0,82,-99.99,,,0.00,meteohub,2014-03-01 08:05:00,
2014-03-01 03:10:00,55.9,51.3,30.06,NE,45,4.0,-999.0,84,-99.99,,,0.00,meteohub,2014-03-01 08:10:00,
2014-03-01 03:16:00,55.0,49.3,30.06,NW,315,3.0,-999.0,81,-99.99,,,0.00,meteohub,2014-03-01 08:16:00,
2014-03-01 03:21:00,55.9,50.2,30.06,NNE,22,1.0,-999.0,81,-99.99,,,0.00,meteohub,2014-03-01 08:21:00,
2014-03-01 03:26:00,55.0,49.3,30.07,NNW,337,2.0,-999.0,81,-99.99,,,0.00,meteohub,2014-03-01 08:26:00,
2014-03-01 03:31:00,55.0,49.3,30.07,NE,45,2.0,-999.0,81,-99.99,,,0.00,meteohub,2014-03-01 08:31:00,
2014-03-01 03:36:00,55.0,49.3,30.07,NNE,22,3.0,-999.0,81,-99.99,,,0.00,meteohub,2014-03-01 08:36:00,
2014-03-01 03:41:00,55.0,49.6,30.07,NW,315,0.0,-999.0,82,-99.99,,,0.00,meteohub,2014-03-01 08:41:00,
2014-03-01 03:46:00,55.0,50.4,30.07,NE,45,0.0,-999.0,84,-99.99,,,0.00,meteohub,2014-03-01 08:46:00,
2014-03-01 03:51:00,55.0,50.0,30.07,NE,45,2.0,-999.0,83,-99.99,,,0.00,meteohub,2014-03-01 08:51:00,
2014-03-01 03:57:00,55.0,50.4,30.07,NE,45,0.0,-999.0,84,-99.99,,,0.00,meteohub,2014-03-01 08:57:00,
2014-03-01 04:02:00,55.0,50.4,30.07,NE,45,0.0,-999.0,84,-99.99,,,0.00,meteohub,2014-03-01 09:02:00,
2014-03-01 04:07:00,55.0,51.3,30.07,NNE,22,0.0,-999.0,87,-99.99,,,0.00,meteohub,2014-03-01 09:07:00,
2014-03-01 04:12:00,55.0,50.9,30.07,NE,45,4.0,-999.0,86,-99.99,,,0.00,meteohub,2014-03-01 09:12:00,
2014-03-01 04:17:00,55.0,50.9,30.07,NE,45,1.0,-999.0,86,-99.99,,,0.00,meteohub,2014-03-01 09:17:00,
2014-03-01 04:22:00,55.0,50.9,30.07,North,0,0.0,-999.0,86,-99.99,,,0.00,meteohub,2014-03-01 09:22:00,
2014-03-01 04:27:00,55.0,51.3,30.07,NE,45,2.0,-999.0,87,-99.99,,,0.00,meteohub,2014-03-01 09:27:00,
2014-03-01 04:32:00,55.0,51.6,30.07,NE,45,1.0,-999.0,88,-99.99,,,0.00,meteohub,2014-03-01 09:32:00,
2014-03-01 04:37:00,55.0,51.6,30.07,NE,45,0.0,-999.0,88,-99.99,,,0.00,meteohub,2014-03-01 09:37:00,
2014-03-01 04:42:00,55.0,52.7,30.07,NE,45,5.0,-999.0,92,-99.99,,,0.00,meteohub,2014-03-01 09:42:00,
2014-03-01 04:47:00,55.0,51.8,30.07,NE,45,2.0,-999.0,89,-99.99,,,0.00,meteohub,2014-03-01 09:47:00,
2014-03-01 04:52:00,55.0,51.8,30.07,NE,45,3.0,-999.0,89,-99.99,,,0.00,meteohub,2014-03-01 09:52:00,
2014-03-01 04:57:00,55.0,51.8,30.09,NE,45,3.0,-999.0,89,-99.99,,,0.00,meteohub,2014-03-01 09:57:00,
2014-03-01 05:02:00,55.0,52.2,30.09,NE,45,3.0,-999.0,90,-99.99,,,0.00,meteohub,2014-03-01 10:02:00,
2014-03-01 05:07:00,55.0,51.8,30.10,NE,45,2.0,-999.0,89,-99.99,,,0.00,meteohub,2014-03-01 10:07:00,
2014-03-01 05:12:00,55.0,52.2,30.10,NE,45,2.0,-999.0,90,-99.99,,,0.00,meteohub,2014-03-01 10:12:00,
2014-03-01 05:17:00,55.0,53.4,30.10,North,0,0.0,-999.0,94,-99.99,,,0.00,meteohub,2014-03-01 10:17:00,
2014-03-01 05:22:00,55.0,52.5,30.10,NE,45,4.0,-999.0,91,-99.99,,,0.00,meteohub,2014-03-01 10:22:00,
2014-03-01 05:27:00,55.0,52.5,30.10,NE,45,2.0,-999.0,91,-99.99,,,0.00,meteohub,2014-03-01 10:27:00,
2014-03-01 05:32:00,55.0,52.5,30.10,NE,45,0.0,-999.0,91,-99.99,,,0.00,meteohub,2014-03-01 10:32:00,
2014-03-01 05:37:00,55.0,52.5,30.10,NNE,22,1.0,-999.0,91,-99.99,,,0.00,meteohub,2014-03-01 10:37:00,
2014-03-01 05:42:00,55.0,52.5,30.10,NE,45,5.0,-999.0,91,-99.99,,,0.00,meteohub,2014-03-01 10:42:00,
2014-03-01 05:47:00,55.0,52.5,30.10,NE,45,3.0,-999.0,91,-99.99,,,0.00,meteohub,2014-03-01 10:47:00,
2014-03-01 05:52:00,54.0,52.9,30.10,North,0,1.0,-999.0,96,-99.99,,,0.00,meteohub,2014-03-01 10:52:00,
2014-03-01 05:57:00,55.0,52.5,30.10,NE,45,2.0,-999.0,91,-99.99,,,0.00,meteohub,2014-03-01 10:57:00,
2014-03-01 06:02:00,55.0,52.5,30.10,NE,45,1.0,-999.0,91,-99.99,,,0.00,meteohub,2014-03-01 11:02:00,
2014-03-01 06:07:00,55.0,52.5,30.10,NE,45,1.0,-999.0,91,-99.99,,,0.00,meteohub,2014-03-01 11:07:00,
2014-03-01 06:12:00,55.0,52.5,30.10,NE,45,3.0,-999.0,91,-99.99,,,0.00,meteohub,2014-03-01 11:12:00,
2014-03-01 06:17:00,55.0,52.5,30.10,NE,45,1.0,-999.0,91,-99.99,,,0.00,meteohub,2014-03-01 11:17:00,
2014-03-01 06:22:00,55.0,52.7,30.12,NE,45,2.0,-999.0,92,-99.99,,,0.00,meteohub,2014-03-01 11:22:00,
2014-03-01 06:27:00,55.0,54.0,30.12,NE,45,3.0,-999.0,96,-99.99,,,0.00,meteohub,2014-03-01 11:27:00,
2014-03-01 06:32:00,55.0,52.5,30.12,NE,45,5.0,-999.0,91,-99.99,,,0.00,meteohub,2014-03-01 11:32:00,
2014-03-01 06:37:00,55.0,52.5,30.12,NE,45,2.0,-999.0,91,-99.99,,,0.00,meteohub,2014-03-01 11:37:00,
2014-03-01 06:42:00,55.0,52.5,30.12,NE,45,1.0,-999.0,91,-99.99,,,-99.99,meteohub,2014-03-01 11:42:00,
2014-03-01 06:47:00,55.0,52.5,30.12,NE,45,1.0,-999.0,91,-99.99,,,-99.99,meteohub,2014-03-01 11:47:00,
2014-03-01 06:52:00,55.0,52.5,30.13,NE,45,5.0,-999.0,91,-99.99,,,-99.99,meteohub,2014-03-01 11:52:00,
2014-03-01 06:57:00,55.0,52.5,30.13,NE,45,0.0,-999.0,91,-99.99,,,0.00,meteohub,2014-03-01 11:57:00,
2014-03-01 07:02:00,55.0,54.1,30.13,NE,45,2.0,-999.0,97,-99.99,,,-99.99,meteohub,2014-03-01 12:02:00,
2014-03-01 07:07:00,55.9,53.6,30.13,NE,45,1.0,-999.0,92,-99.99,,,-99.99,meteohub,2014-03-01 12:07:00,
2014-03-01 07:12:00,55.9,53.4,30.13,NE,45,1.0,-999.0,91,-99.99,,,0.00,meteohub,2014-03-01 12:12:00,
2014-03-01 07:17:00,55.9,53.4,30.13,NE,45,0.0,-999.0,91,-99.99,,,-99.99,meteohub,2014-03-01 12:17:00,
2014-03-01 07:22:00,57.0,54.5,30.13,NE,45,0.0,-999.0,91,-99.99,,,-99.99,meteohub,2014-03-01 12:22:00,
2014-03-01 07:27:00,57.9,55.2,30.13,NE,45,2.0,-999.0,91,-99.99,,,0.00,meteohub,2014-03-01 12:27:00,
2014-03-01 07:32:00,57.9,55.0,30.14,NE,45,3.0,-999.0,90,-99.99,,,0.00,meteohub,2014-03-01 12:32:00,
2014-03-01 07:33:00,57.9,54.7,30.14,NE,45,0.0,-999.0,89,-99.99,,,0.00,meteohub,2014-03-01 12:33:00,
2014-03-01 07:38:00,59.0,56.1,30.14,NE,45,3.0,-999.0,90,-99.99,,,0.00,meteohub,2014-03-01 12:38:00,
2014-03-01 07:43:00,59.0,55.8,30.14,NE,45,5.0,-999.0,89,-99.99,,,-99.99,meteohub,2014-03-01 12:43:00,
2014-03-01 07:48:00,60.1,56.5,30.14,NE,45,4.0,-999.0,88,-99.99,,,0.00,meteohub,2014-03-01 12:48:00,
2014-03-01 07:54:00,60.1,55.6,30.16,NE,45,3.0,-999.0,85,-99.99,,,0.00,meteohub,2014-03-01 12:54:00,
2014-03-01 07:59:00,61.0,57.4,30.16,NE,45,1.0,-999.0,88,-99.99,,,0.00,meteohub,2014-03-01 12:59:00,
2014-03-01 08:04:00,61.0,55.8,30.16,NE,45,6.0,-999.0,83,-99.99,,,-99.99,meteohub,2014-03-01 13:04:00,
2014-03-01 08:09:00,61.0,55.4,30.16,NE,45,3.0,-999.0,82,-99.99,,,-99.99,meteohub,2014-03-01 13:09:00,
2014-03-01 08:14:00,61.0,55.4,30.16,NE,45,3.0,-999.0,82,-99.99,,,0.00,meteohub,2014-03-01 13:14:00,
2014-03-01 08:19:00,62.1,57.7,30.17,NE,45,1.0,-999.0,86,-99.99,,,0.00,meteohub,2014-03-01 13:19:00,
2014-03-01 08:25:00,62.1,54.7,30.17,NE,45,2.0,-999.0,77,-99.99,,,0.00,meteohub,2014-03-01 13:25:00,
2014-03-01 08:30:00,63.0,55.2,30.17,NE,45,5.0,-999.0,76,-99.99,,,0.00,meteohub,2014-03-01 13:30:00,
2014-03-01 08:35:00,63.0,54.9,30.17,NE,45,3.0,-999.0,75,-99.99,,,0.00,meteohub,2014-03-01 13:35:00,
2014-03-01 08:40:00,63.0,55.6,30.17,NE,45,4.0,-999.0,77,-99.99,,,0.00,meteohub,2014-03-01 13:40:00,
2014-03-01 08:45:00,63.0,53.8,30.17,NE,45,4.0,-999.0,72,-99.99,,,-99.99,meteohub,2014-03-01 13:45:00,
2014-03-01 08:50:00,63.0,54.1,30.19,NE,45,7.0,-999.0,73,-99.99,,,-99.99,meteohub,2014-03-01 13:50:00,
2014-03-01 08:56:00,63.0,53.4,30.19,NE,45,4.0,-999.0,71,-99.99,,,0.00,meteohub,2014-03-01 13:56:00,
2014-03-01 09:01:00,64.0,56.7,30.19,SE,135,1.0,-999.0,77,-99.99,,,-99.99,meteohub,2014-03-01 14:01:00,
2014-03-01 09:06:00,64.0,54.1,30.19,NE,45,1.0,-999.0,70,-99.99,,,0.00,meteohub,2014-03-01 14:06:00,
2014-03-01 09:11:00,66.0,55.6,30.19,North,0,0.0,-999.0,69,-99.99,,,0.00,meteohub,2014-03-01 14:11:00,
2014-03-01 09:16:00,66.9,55.6,30.19,NE,45,1.0,-999.0,67,-99.99,,,0.00,meteohub,2014-03-01 14:16:00,
2014-03-01 09:21:00,68.0,57.0,30.19,NE,45,1.0,-999.0,68,-99.99,,,0.00,meteohub,2014-03-01 14:21:00,
2014-03-01 09:26:00,69.1,56.5,30.19,NE,45,2.0,-999.0,64,-99.99,,,0.00,meteohub,2014-03-01 14:26:00,
2014-03-01 09:32:00,69.1,55.9,30.20,SE,135,2.0,-999.0,63,-99.99,,,0.00,meteohub,2014-03-01 14:32:00,
2014-03-01 09:37:00,69.1,55.9,30.22,NE,45,2.0,-999.0,63,-99.99,,,-99.99,meteohub,2014-03-01 14:37:00,
2014-03-01 09:42:00,69.1,55.9,30.22,SE,135,2.0,-999.0,63,-99.99,,,-99.99,meteohub,2014-03-01 14:42:00,
2014-03-01 09:47:00,69.1,56.5,30.22,NE,45,2.0,-999.0,64,-99.99,,,-99.99,meteohub,2014-03-01 14:47:00,
2014-03-01 09:52:00,68.0,53.6,30.22,SE,135,5.0,-999.0,60,-99.99,,,0.00,meteohub,2014-03-01 14:52:00,
2014-03-01 09:57:00,68.0,54.9,30.22,NE,45,5.0,-999.0,63,-99.99,,,0.00,meteohub,2014-03-01 14:57:00,
2014-03-01 10:02:00,68.0,54.9,30.22,SE,135,5.0,-999.0,63,-99.99,,,-99.99,meteohub,2014-03-01 15:02:00,
2014-03-01 10:07:00,68.0,54.0,30.22,SE,135,6.0,-999.0,61,-99.99,,,-99.99,meteohub,2014-03-01 15:07:00,
2014-03-01 10:12:00,68.0,51.8,30.22,NE,45,2.0,-999.0,56,-99.99,,,0.00,meteohub,2014-03-01 15:12:00,
2014-03-01 10:17:00,69.1,52.2,30.22,SE,135,5.0,-999.0,55,-99.99,,,0.00,meteohub,2014-03-01 15:17:00,
2014-03-01 10:22:00,70.0,52.0,30.22,NE,45,0.0,-999.0,53,-99.99,,,0.00,meteohub,2014-03-01 15:22:00,
2014-03-01 10:27:00,71.1,52.0,30.22,West,270,3.0,-999.0,51,-99.99,,,0.00,meteohub,2014-03-01 15:27:00,
2014-03-01 10:32:00,71.1,53.1,30.22,NE,45,2.0,-999.0,53,-99.99,,,0.00,meteohub,2014-03-01 15:32:00,
2014-03-01 10:37:00,72.0,52.3,30.22,NNW,337,2.0,-999.0,50,-99.99,,,0.00,meteohub,2014-03-01 15:37:00,
2014-03-01 10:42:00,73.0,52.7,30.22,NW,315,6.0,-999.0,49,-99.99,,,0.00,meteohub,2014-03-01 15:42:00,
2014-03-01 10:47:00,73.0,49.3,30.22,NNW,337,6.0,-999.0,43,-99.99,,,-99.99,meteohub,2014-03-01 15:47:00,
2014-03-01 10:52:00,72.0,49.5,30.22,West,270,6.0,-999.0,45,-99.99,,,-99.99,meteohub,2014-03-01 15:52:00,
2014-03-01 10:57:00,71.1,48.6,30.22,NW,315,2.0,-999.0,45,-99.99,,,0.00,meteohub,2014-03-01 15:57:00,
2014-03-01 11:02:00,72.0,50.7,30.22,West,270,2.0,-999.0,47,-99.99,,,-99.99,meteohub,2014-03-01 16:02:00,
2014-03-01 11:07:00,72.0,50.0,30.22,NW,315,6.0,-999.0,46,-99.99,,,-99.99,meteohub,2014-03-01 16:07:00,
2014-03-01 11:12:00,72.0,51.3,30.22,West,270,3.0,-999.0,48,-99.99,,,-99.99,meteohub,2014-03-01 16:12:00,
2014-03-01 11:17:00,72.0,52.3,30.22,WSW,247,8.0,-999.0,50,-99.99,,,-99.99,meteohub,2014-03-01 16:17:00,
2014-03-01 11:22:00,70.0,48.2,30.22,West,270,4.0,-999.0,46,-99.99,,,-99.99,meteohub,2014-03-01 16:22:00,
2014-03-01 11:27:00,71.1,51.4,30.22,WNW,292,4.0,-999.0,50,-99.99,,,0.00,meteohub,2014-03-01 16:27:00,
2014-03-01 11:32:00,71.1,52.0,30.22,NW,315,6.0,-999.0,51,-99.99,,,-99.99,meteohub,2014-03-01 16:32:00,
2014-03-01 11:37:00,71.1,51.4,30.22,West,270,5.0,-999.0,50,-99.99,,,0.00,meteohub,2014-03-01 16:37:00,
2014-03-01 11:42:00,71.1,50.4,30.20,West,270,9.0,-999.0,48,-99.99,,,-99.99,meteohub,2014-03-01 16:42:00,
2014-03-01 11:47:00,71.1,51.4,30.20,West,270,8.0,-999.0,50,-99.99,,,-99.99,meteohub,2014-03-01 16:47:00,
2014-03-01 11:52:00,70.0,53.1,30.20,West,270,7.0,-999.0,55,-99.99,,,-99.99,meteohub,2014-03-01 16:52:00,
2014-03-01 11:57:00,70.0,50.0,30.20,WNW,292,7.0,-999.0,49,-99.99,,,-99.99,meteohub,2014-03-01 16:57:00,
2014-03-01 12:02:00,70.0,50.5,30.20,West,270,10.0,-999.0,50,-99.99,,,0.00,meteohub,2014-03-01 17:02:00,
2014-03-01 12:07:00,70.0,51.1,30.20,West,270,8.0,-999.0,51,-99.99,,,0.00,meteohub,2014-03-01 17:07:00,
2014-03-01 12:12:00,70.0,51.6,30.19,WNW,292,9.0,-999.0,52,-99.99,,,0.00,meteohub,2014-03-01 17:12:00,
2014-03-01 12:17:00,70.0,50.5,30.19,West,270,7.0,-999.0,50,-99.99,,,-99.99,meteohub,2014-03-01 17:17:00,
2014-03-01 12:22:00,70.0,51.6,30.19,West,270,9.0,-999.0,52,-99.99,,,-99.99,meteohub,2014-03-01 17:22:00,
2014-03-01 12:27:00,70.0,52.0,30.19,West,270,11.0,-999.0,53,-99.99,,,0.00,meteohub,2014-03-01 17:27:00,
2014-03-01 12:32:00,70.0,52.0,30.19,West,270,6.0,-999.0,53,-99.99,,,-99.99,meteohub,2014-03-01 17:32:00,
2014-03-01 12:37:00,71.1,52.0,30.19,West,270,7.0,-999.0,51,-99.99,,,-99.99,meteohub,2014-03-01 17:37:00,
2014-03-01 12:42:00,71.1,52.0,30.17,West,270,6.0,-999.0,51,-99.99,,,-99.99,meteohub,2014-03-01 17:42:00,
2014-03-01 12:47:00,71.1,52.5,30.17,West,270,9.0,-999.0,52,-99.99,,,-99.99,meteohub,2014-03-01 17:47:00,
2014-03-01 12:52:00,71.1,52.0,30.17,West,270,12.0,-999.0,51,-99.99,,,-99.99,meteohub,2014-03-01 17:52:00,
2014-03-01 12:57:00,71.1,53.1,30.17,West,270,9.0,-999.0,53,-99.99,,,0.00,meteohub,2014-03-01 17:57:00,
2014-03-01 13:02:00,71.1,52.0,30.17,West,270,9.0,-999.0,51,-99.99,,,0.00,meteohub,2014-03-01 18:02:00,
2014-03-01 13:07:00,71.1,54.1,30.16,West,270,9.0,-999.0,55,-99.99,,,-99.99,meteohub,2014-03-01 18:07:00,
2014-03-01 13:12:00,71.1,53.1,30.16,NW,315,10.0,-999.0,53,-99.99,,,-99.99,meteohub,2014-03-01 18:12:00,
2014-03-01 13:17:00,71.1,53.1,30.16,West,270,7.0,-999.0,53,-99.99,,,-99.99,meteohub,2014-03-01 18:17:00,
2014-03-01 13:22:00,71.1,53.1,30.16,WNW,292,7.0,-999.0,53,-99.99,,,-99.99,meteohub,2014-03-01 18:22:00,
2014-03-01 13:27:00,72.0,52.9,30.16,West,270,11.0,-999.0,51,-99.99,,,-99.99,meteohub,2014-03-01 18:27:00,
2014-03-01 13:32:00,72.0,54.0,30.16,West,270,7.0,-999.0,53,-99.99,,,-99.99,meteohub,2014-03-01 18:32:00,
2014-03-01 13:37:00,72.0,54.0,30.16,West,270,8.0,-999.0,53,-99.99,,,0.00,meteohub,2014-03-01 18:37:00,
2014-03-01 13:42:00,72.0,53.4,30.16,WNW,292,7.0,-999.0,52,-99.99,,,0.00,meteohub,2014-03-01 18:42:00,
2014-03-01 13:47:00,72.0,54.0,30.16,WNW,292,10.0,-999.0,53,-99.99,,,-99.99,meteohub,2014-03-01 18:47:00,
2014-03-01 13:52:00,72.0,54.9,30.16,West,270,6.0,-999.0,55,-99.99,,,-99.99,meteohub,2014-03-01 18:52:00,
2014-03-01 13:57:00,72.0,54.0,30.14,West,270,7.0,-999.0,53,-99.99,,,-99.99,meteohub,2014-03-01 18:57:00,
2014-03-01 14:02:00,73.0,55.9,30.14,West,270,10.0,-999.0,55,-99.99,,,-99.99,meteohub,2014-03-01 19:02:00,
2014-03-01 14:07:00,72.0,54.0,30.14,West,270,9.0,-999.0,53,-99.99,,,0.00,meteohub,2014-03-01 19:07:00,
2014-03-01 14:12:00,73.0,53.8,30.14,West,270,9.0,13.0,51,0.00,,,0.00,meteohub,2014-03-01 19:12:00,
2014-03-01 14:17:00,73.0,55.9,30.14,West,270,11.0,13.0,55,0.00,,,0.00,meteohub,2014-03-01 19:17:00,
2014-03-01 14:22:00,72.0,55.4,30.14,West,270,9.0,13.0,56,0.00,,,0.00,meteohub,2014-03-01 19:22:00,
2014-03-01 14:27:00,72.0,55.9,30.14,WNW,292,10.0,13.0,57,0.00,,,0.00,meteohub,2014-03-01 19:27:00,
2014-03-01 14:32:00,72.0,55.9,30.14,NW,315,9.0,13.0,57,0.00,,,0.00,meteohub,2014-03-01 19:32:00,
2014-03-01 14:37:00,73.0,54.9,30.13,NNW,337,9.0,14.0,53,0.00,,,0.00,meteohub,2014-03-01 19:37:00,
2014-03-01 14:42:00,72.0,55.4,30.13,West,270,10.0,14.0,56,0.00,,,0.00,meteohub,2014-03-01 19:42:00,
2014-03-01 14:47:00,72.0,56.3,30.13,WNW,292,6.0,14.0,58,0.00,,,0.00,meteohub,2014-03-01 19:47:00,
2014-03-01 14:52:00,72.0,56.3,30.13,West,270,14.0,14.0,58,0.00,,,0.00,meteohub,2014-03-01 19:52:00,
2014-03-01 14:57:00,72.0,57.4,30.13,West,270,7.0,16.0,60,0.00,,,0.00,meteohub,2014-03-01 19:57:00,
2014-03-01 15:02:00,72.0,56.8,30.13,West,270,7.0,16.0,59,0.00,,,0.00,meteohub,2014-03-01 20:02:00,
2014-03-01 15:07:00,72.0,57.4,30.13,NW,315,13.0,16.0,60,0.00,,,0.00,meteohub,2014-03-01 20:07:00,
2014-03-01 15:12:00,72.0,57.4,30.13,NW,315,6.0,16.0,60,0.00,,,0.00,meteohub,2014-03-01 20:12:00,
2014-03-01 15:17:00,72.0,58.3,30.13,West,270,9.0,17.0,62,0.00,,,0.00,meteohub,2014-03-01 20:17:00,
2014-03-01 15:22:00,72.0,57.7,30.13,West,270,6.0,17.0,61,0.00,,,0.00,meteohub,2014-03-01 20:22:00,
2014-03-01 15:27:00,71.1,57.7,30.13,West,270,10.0,16.0,63,0.00,,,0.00,meteohub,2014-03-01 20:27:00,
2014-03-01 15:32:00,71.1,57.7,30.13,WNW,292,10.0,16.0,63,0.00,,,0.00,meteohub,2014-03-01 20:32:00,
2014-03-01 15:37:00,72.0,56.8,30.13,WNW,292,7.0,16.0,59,0.00,,,0.00,meteohub,2014-03-01 20:37:00,
2014-03-01 15:42:00,72.0,57.7,30.13,WNW,292,3.0,13.0,61,0.00,,,0.00,meteohub,2014-03-01 20:42:00,
2014-03-01 15:47:00,72.0,58.3,30.13,NW,315,7.0,13.0,62,0.00,,,0.00,meteohub,2014-03-01 20:47:00,
2014-03-01 15:52:00,72.0,59.2,30.13,West,270,6.0,15.0,64,0.00,,,0.00,meteohub,2014-03-01 20:52:00,
2014-03-01 15:57:00,72.0,59.2,30.13,West,270,11.0,15.0,64,0.00,,,0.00,meteohub,2014-03-01 20:57:00,
2014-03-01 16:02:00,72.0,58.6,30.13,West,270,7.0,15.0,63,0.00,,,0.00,meteohub,2014-03-01 21:02:00,
2014-03-01 16:07:00,71.1,58.6,30.13,West,270,6.0,13.0,65,0.00,,,0.00,meteohub,2014-03-01 21:07:00,
2014-03-01 16:12:00,71.1,58.6,30.13,West,270,10.0,13.0,65,0.00,,,0.00,meteohub,2014-03-01 21:12:00,
2014-03-01 16:17:00,71.1,58.6,30.13,West,270,10.0,16.0,65,0.00,,,0.00,meteohub,2014-03-01 21:17:00,
2014-03-01 16:22:00,71.1,58.6,30.13,NNW,337,11.0,16.0,65,0.00,,,0.00,meteohub,2014-03-01 21:22:00,
2014-03-01 16:27:00,71.1,58.6,30.13,West,270,6.0,16.0,65,0.00,,,0.00,meteohub,2014-03-01 21:27:00,
2014-03-01 16:32:00,72.0,59.5,30.13,NW,315,5.0,16.0,65,0.00,,,0.00,meteohub,2014-03-01 21:32:00,
2014-03-01 16:38:00,71.1,57.7,30.13,West,270,14.0,14.0,63,0.00,,,0.00,meteohub,2014-03-01 21:38:00,
2014-03-01 16:43:00,71.1,58.6,30.13,West,270,10.0,15.0,65,0.00,,,0.00,meteohub,2014-03-01 21:43:00,
2014-03-01 16:48:00,71.1,59.2,30.13,West,270,9.0,15.0,66,0.00,,,0.00,meteohub,2014-03-01 21:48:00,
2014-03-01 16:53:00,71.1,59.2,30.13,WSW,247,6.0,16.0,66,0.00,,,0.00,meteohub,2014-03-01 21:53:00,
2014-03-01 16:59:00,71.1,58.6,30.13,WNW,292,12.0,16.0,65,0.00,,,0.00,meteohub,2014-03-01 21:59:00,
2014-03-01 17:04:00,71.1,59.5,30.13,West,270,8.0,16.0,67,0.00,,,0.00,meteohub,2014-03-01 22:04:00,
2014-03-01 17:09:00,71.1,59.9,30.13,West,270,10.0,16.0,68,0.00,,,0.00,meteohub,2014-03-01 22:09:00,
2014-03-01 17:14:00,71.1,59.2,30.13,NW,315,7.0,16.0,66,0.00,,,0.00,meteohub,2014-03-01 22:14:00,
2014-03-01 17:20:00,71.1,59.9,30.13,WNW,292,4.0,15.0,68,0.00,,,0.00,meteohub,2014-03-01 22:20:00,
2014-03-01 17:25:00,71.1,60.4,30.13,West,270,10.0,15.0,69,0.00,,,0.00,meteohub,2014-03-01 22:25:00,
2014-03-01 17:30:00,71.1,60.4,30.13,NNW,337,7.0,16.0,69,0.00,,,0.00,meteohub,2014-03-01 22:30:00,
2014-03-01 17:35:00,70.0,59.4,30.13,WNW,292,4.0,16.0,69,0.00,,,0.00,meteohub,2014-03-01 22:35:00,
2014-03-01 17:40:00,70.0,59.4,30.13,West,270,9.0,16.0,69,0.00,,,0.00,meteohub,2014-03-01 22:40:00,
2014-03-01 17:46:00,70.0,59.4,30.13,West,270,3.0,13.0,69,0.00,,,0.00,meteohub,2014-03-01 22:46:00,
2014-03-01 17:51:00,70.0,59.4,30.13,West,270,4.0,13.0,69,0.00,,,0.00,meteohub,2014-03-01 22:51:00,
2014-03-01 17:56:00,70.0,59.7,30.13,West,270,7.0,12.0,70,0.00,,,0.00,meteohub,2014-03-01 22:56:00,
2014-03-01 18:01:00,70.0,60.1,30.13,West,270,6.0,12.0,71,0.00,,,0.00,meteohub,2014-03-01 23:01:00,
2014-03-01 18:07:00,70.0,60.1,30.13,West,270,6.0,12.0,71,0.00,,,0.00,meteohub,2014-03-01 23:07:00,
2014-03-01 18:12:00,69.1,59.4,30.13,West,270,6.0,12.0,71,0.00,,,0.00,meteohub,2014-03-01 23:12:00,
2014-03-01 18:17:00,69.1,60.1,30.13,WNW,292,7.0,12.0,73,0.00,,,0.00,meteohub,2014-03-01 23:17:00,
2014-03-01 18:22:00,69.1,60.1,30.13,West,270,6.0,12.0,73,0.00,,,0.00,meteohub,2014-03-01 23:22:00,
2014-03-01 18:27:00,68.0,59.4,30.13,WNW,292,4.0,10.0,74,0.00,,,0.00,meteohub,2014-03-01 23:27:00,
2014-03-01 18:32:00,68.0,59.7,30.13,West,270,3.0,10.0,75,0.00,,,0.00,meteohub,2014-03-01 23:32:00,
2014-03-01 18:37:00,68.0,59.7,30.13,West,270,5.0,10.0,75,0.00,,,0.00,meteohub,2014-03-01 23:37:00,
2014-03-01 18:42:00,68.0,60.1,30.13,WNW,292,1.0,10.0,76,0.00,,,0.00,meteohub,2014-03-01 23:42:00,
2014-03-01 18:47:00,68.0,60.1,30.13,NW,315,1.0,8.0,76,0.00,,,0.00,meteohub,2014-03-01 23:47:00,
2014-03-01 18:52:00,66.9,59.2,30.13,West,270,3.0,7.0,76,0.00,,,0.00,meteohub,2014-03-01 23:52:00,
2014-03-01 18:57:00,66.9,59.2,30.13,WNW,292,3.0,6.0,76,0.00,,,0.00,meteohub,2014-03-01 23:57:00,
2014-03-01 19:02:00,66.9,59.5,30.13,West,270,1.0,6.0,77,0.00,,,0.00,meteohub,2014-03-02 00:02:00,
2014-03-01 19:07:00,66.9,59.2,30.13,NW,315,3.0,6.0,76,-99.99,,,0.00,meteohub,2014-03-02 00:07:00,
2014-03-01 19:12:00,66.9,59.2,30.13,NW,315,7.0,7.0,76,-99.99,,,0.00,meteohub,2014-03-02 00:12:00,
2014-03-01 19:17:00,66.9,59.5,30.13,West,270,3.0,6.0,77,-99.99,,,0.00,meteohub,2014-03-02 00:17:00,
2014-03-01 19:22:00,66.9,59.2,30.13,NW,315,5.0,-999.0,76,-99.99,,,0.00,meteohub,2014-03-02 00:22:00,
2014-03-01 19:27:00,66.9,59.2,30.13,WNW,292,2.0,-999.0,76,-99.99,,,0.00,meteohub,2014-03-02 00:27:00,
2014-03-01 19:32:00,66.9,59.2,30.13,NW,315,4.0,-999.0,76,-99.99,,,0.00,meteohub,2014-03-02 00:32:00,
2014-03-01 19:37:00,66.9,59.5,30.13,West,270,4.0,-999.0,77,-99.99,,,0.00,meteohub,2014-03-02 00:37:00,
2014-03-01 19:42:00,66.9,59.5,30.13,West,270,3.0,-999.0,77,-99.99,,,0.00,meteohub,2014-03-02 00:42:00,
2014-03-01 19:47:00,66.9,59.5,30.13,NW,315,2.0,-999.0,77,-99.99,,,0.00,meteohub,2014-03-02 00:47:00,
2014-03-01 19:52:00,66.9,60.6,30.13,NNE,22,0.0,-999.0,80,0.00,,,0.00,meteohub,2014-03-02 00:52:00,
2014-03-01 19:57:00,66.0,59.0,30.13,NW,315,1.0,-999.0,78,0.00,,,0.00,meteohub,2014-03-02 00:57:00,
2014-03-01 20:02:00,66.0,59.4,30.14,NW,315,2.0,-999.0,79,0.00,,,0.00,meteohub,2014-03-02 01:02:00,
2014-03-01 20:07:00,66.0,59.4,30.14,NW,315,3.0,-999.0,79,0.00,,,0.00,meteohub,2014-03-02 01:07:00,
2014-03-01 20:12:00,66.0,59.4,30.14,NW,315,1.0,-999.0,79,-99.99,,,0.00,meteohub,2014-03-02 01:12:00,
2014-03-01 20:17:00,66.0,59.4,30.14,West,270,3.0,-999.0,79,-99.99,,,0.00,meteohub,2014-03-02 01:17:00,
2014-03-01 20:22:00,66.0,59.4,30.14,NNW,337,2.0,-999.0,79,-99.99,,,0.00,meteohub,2014-03-02 01:22:00,
2014-03-01 20:27:00,66.0,60.4,30.14,NE,45,0.0,-999.0,82,-99.99,,,0.00,meteohub,2014-03-02 01:27:00,
2014-03-01 20:32:00,64.9,58.6,30.14,NNW,337,2.0,-999.0,80,-99.99,,,0.00,meteohub,2014-03-02 01:32:00,
2014-03-01 20:37:00,64.9,58.6,30.14,North,0,1.0,-999.0,80,-99.99,,,0.00,meteohub,2014-03-02 01:37:00,
2014-03-01 20:42:00,64.9,59.0,30.16,NW,315,3.0,-999.0,81,-99.99,,,0.00,meteohub,2014-03-02 01:42:00,
2014-03-01 20:47:00,64.9,58.6,30.16,NW,315,3.0,-999.0,80,-99.99,,,0.00,meteohub,2014-03-02 01:47:00,
2014-03-01 20:52:00,64.9,58.6,30.16,NW,315,6.0,-999.0,80,-99.99,,,0.00,meteohub,2014-03-02 01:52:00,
2014-03-01 20:57:00,64.9,58.3,30.16,NW,315,2.0,-999.0,79,-99.99,,,0.00,meteohub,2014-03-02 01:57:00,
2014-03-01 21:02:00,64.9,59.7,30.16,SW,225,0.0,-999.0,83,-99.99,,,0.00,meteohub,2014-03-02 02:02:00,
2014-03-01 21:07:00,64.9,58.6,30.16,SW,225,0.0,-999.0,80,-99.99,,,0.00,meteohub,2014-03-02 02:07:00,
2014-03-01 21:12:00,64.9,58.6,30.16,North,0,0.0,-999.0,80,-99.99,,,0.00,meteohub,2014-03-02 02:12:00,
2014-03-01 21:17:00,64.9,59.0,30.16,NW,315,1.0,-999.0,81,-99.99,,,0.00,meteohub,2014-03-02 02:17:00,
2014-03-01 21:22:00,64.9,59.0,30.16,NW,315,5.0,-999.0,81,-99.99,,,0.00,meteohub,2014-03-02 02:22:00,
2014-03-01 21:27:00,64.9,59.0,30.16,NE,45,0.0,-999.0,81,-99.99,,,0.00,meteohub,2014-03-02 02:27:00,
2014-03-01 21:32:00,64.9,59.0,30.16,NE,45,0.0,-999.0,81,-99.99,,,0.00,meteohub,2014-03-02 02:32:00,
2014-03-01 21:37:00,64.9,60.3,30.16,NE,45,0.0,-999.0,85,-99.99,,,0.00,meteohub,2014-03-02 02:37:00,
2014-03-01 21:42:00,64.0,58.5,30.16,NE,45,0.0,-999.0,82,-99.99,,,0.00,meteohub,2014-03-02 02:42:00,
2014-03-01 21:47:00,64.0,58.5,30.16,NE,45,3.0,-999.0,82,-99.99,,,0.00,meteohub,2014-03-02 02:47:00,
2014-03-01 21:52:00,64.0,58.8,30.16,NE,45,3.0,-999.0,83,-99.99,,,0.00,meteohub,2014-03-02 02:52:00,
2014-03-01 21:57:00,64.0,58.8,30.16,NE,45,2.0,-999.0,83,-99.99,,,0.00,meteohub,2014-03-02 02:57:00,
2014-03-01 22:02:00,64.0,58.8,30.17,NE,45,2.0,-999.0,83,-99.99,,,0.00,meteohub,2014-03-02 03:02:00,
2014-03-01 22:07:00,64.0,58.8,30.17,NE,45,2.0,-999.0,83,-99.99,,,0.00,meteohub,2014-03-02 03:07:00,
2014-03-01 22:12:00,64.0,59.7,30.17,NE,45,1.0,-999.0,86,-99.99,,,0.00,meteohub,2014-03-02 03:12:00,
2014-03-01 22:17:00,64.0,58.8,30.17,NE,45,1.0,-999.0,83,-99.99,,,0.00,meteohub,2014-03-02 03:17:00,
2014-03-01 22:22:00,64.0,58.8,30.17,NE,45,3.0,-999.0,83,-99.99,,,0.00,meteohub,2014-03-02 03:22:00,
2014-03-01 22:27:00,64.0,58.8,30.17,NE,45,1.0,-999.0,83,-99.99,,,0.00,meteohub,2014-03-02 03:27:00,
2014-03-01 22:32:00,64.0,58.8,30.17,NE,45,3.0,-999.0,83,-99.99,,,0.00,meteohub,2014-03-02 03:32:00,
2014-03-01 22:37:00,64.0,58.8,30.17,North,0,0.0,-999.0,83,-99.99,,,0.00,meteohub,2014-03-02 03:37:00,
2014-03-01 22:42:00,64.0,58.8,30.17,NE,45,1.0,-999.0,83,-99.99,,,0.00,meteohub,2014-03-02 03:42:00,
2014-03-01 22:47:00,64.0,59.7,30.17,NE,45,2.0,-999.0,86,-99.99,,,0.00,meteohub,2014-03-02 03:47:00,
2014-03-01 22:52:00,64.0,58.8,30.17,NE,45,0.0,-999.0,83,-99.99,,,0.00,meteohub,2014-03-02 03:52:00,
2014-03-01 22:57:00,64.0,58.8,30.17,NE,45,0.0,-999.0,83,-99.99,,,0.00,meteohub,2014-03-02 03:57:00,
2014-03-01 23:02:00,64.0,58.8,30.17,NNE,22,0.0,-999.0,83,-99.99,,,0.00,meteohub,2014-03-02 04:02:00,
2014-03-01 23:07:00,64.0,58.8,30.17,NE,45,4.0,-999.0,83,-99.99,,,0.00,meteohub,2014-03-02 04:07:00,
2014-03-01 23:12:00,64.0,58.8,30.17,NE,45,1.0,-999.0,83,-99.99,,,0.00,meteohub,2014-03-02 04:12:00,
2014-03-01 23:17:00,64.0,58.5,30.17,NE,45,3.0,-999.0,82,-99.99,,,0.00,meteohub,2014-03-02 04:17:00,
2014-03-01 23:22:00,64.0,59.4,30.17,NE,45,4.0,-999.0,85,-99.99,,,0.00,meteohub,2014-03-02 04:22:00,
2014-03-01 23:27:00,64.0,57.7,30.17,NE,45,2.0,-999.0,80,-99.99,,,0.00,meteohub,2014-03-02 04:27:00,
2014-03-01 23:32:00,64.0,57.4,30.16,NE,45,3.0,-999.0,79,-99.99,,,0.00,meteohub,2014-03-02 04:32:00,
2014-03-01 23:37:00,64.0,57.4,30.16,NE,45,2.0,-999.0,79,-99.99,,,0.00,meteohub,2014-03-02 04:37:00,
2014-03-01 23:42:00,64.0,57.7,30.16,NE,45,3.0,-999.0,80,-99.99,,,0.00,meteohub,2014-03-02 04:42:00,
2014-03-01 23:47:00,63.0,56.3,30.16,NE,45,2.0,-999.0,79,-99.99,,,0.00,meteohub,2014-03-02 04:47:00,
2014-03-01 23:52:00,64.0,57.4,30.16,NE,45,4.0,-999.0,79,-99.99,,,0.00,meteohub,2014-03-02 04:52:00,
2014-03-01 23:57:00,64.0,58.5,30.16,NE,45,4.0,-999.0,82,-99.99,,,0.00,meteohub,2014-03-02 04:57:00,